createdAt,value
2019-02-25T00:04:18.990Z,35.43
2019-02-25T00:09:24.793Z,37.90
2019-02-25T00:14:36.951Z,32.60
2019-02-25T00:19:42.399Z,45.83
2019-02-25T00:24:48.527Z,28.83
2019-02-25T00:29:53.971Z,30.57
2019-02-25T00:34:59.562Z,37.77
2019-02-25T00:40:05.303Z,33.70
2019-02-25T00:45:10.839Z,31.03
2019-02-25T00:50:16.286Z,30.37
2019-02-25T00:55:22.087Z,27.73
2019-02-25T01:00:27.533Z,26.80
2019-02-25T01:05:32.997Z,31.53
2019-02-25T01:10:39.175Z,27.10
2019-02-25T01:15:44.962Z,28.40
2019-02-25T01:20:50.522Z,23.93
2019-02-25T01:25:55.992Z,27.63
2019-02-25T01:31:01.487Z,24.57
2019-02-25T01:36:07.375Z,27.50
2019-02-25T01:41:12.815Z,29.47
2019-02-25T01:46:18.280Z,24.80
2019-02-25T01:51:23.734Z,26.57
2019-02-25T01:56:29.195Z,24.80
2019-02-25T02:01:34.658Z,25.20
2019-02-25T02:12:00.163Z,23.53
2019-02-25T02:17:05.953Z,24.40
2019-02-25T02:22:12.091Z,24.70
2019-02-25T02:27:17.541Z,26.47
2019-02-25T02:32:23.350Z,21.03
2019-02-25T02:37:28.834Z,23.27
2019-02-25T02:42:34.439Z,26.33
2019-02-25T02:47:48.971Z,25.83
2019-02-25T02:52:54.782Z,28.63
2019-02-25T02:58:00.266Z,21.57
2019-02-25T03:03:05.731Z,24.53
2019-02-25T03:08:11.554Z,25.13
2019-02-25T03:13:17.742Z,26.27
2019-02-25T03:18:23.195Z,30.37
2019-02-25T03:23:28.721Z,23.47
2019-02-25T03:28:34.212Z,23.87
2019-02-25T03:33:39.680Z,21.73
2019-02-25T03:38:45.166Z,27.93
2019-02-25T03:43:50.616Z,28.47
2019-02-25T03:48:56.063Z,25.33
2019-02-25T03:54:02.008Z,20.87
2019-02-25T03:59:07.843Z,23.27
2019-02-25T04:04:13.293Z,26.00
2019-02-25T04:09:19.804Z,24.57
2019-02-25T04:14:25.282Z,23.43
2019-02-25T04:19:31.271Z,22.17
2019-02-25T04:24:36.715Z,25.27
2019-02-25T04:29:42.509Z,21.60
2019-02-25T04:34:48.020Z,23.47
2019-02-25T04:39:53.494Z,24.97
2019-02-25T04:44:59.000Z,25.67
2019-02-25T04:50:04.816Z,21.33
2019-02-25T04:55:10.942Z,25.57
2019-02-25T05:00:17.661Z,21.50
2019-02-25T05:05:23.114Z,23.73
2019-02-25T05:10:28.570Z,23.50
2019-02-25T05:15:34.270Z,24.97
2019-02-25T05:20:39.755Z,20.70
2019-02-25T05:25:45.249Z,23.80
2019-02-25T05:30:50.728Z,26.50
2019-02-25T05:35:56.249Z,23.53
2019-02-25T05:41:01.826Z,30.30
2019-02-25T05:46:07.321Z,24.97
2019-02-25T05:51:12.854Z,21.53
2019-02-25T05:56:18.673Z,23.63
2019-02-25T06:01:24.239Z,25.53
2019-02-25T06:06:29.918Z,23.27
2019-02-25T06:11:35.370Z,25.33
2019-02-25T06:16:40.967Z,23.53
2019-02-25T06:21:46.438Z,25.10
2019-02-25T06:26:52.022Z,21.10
2019-02-25T06:31:57.510Z,27.20
2019-02-25T06:37:02.973Z,22.90
2019-02-25T06:42:08.427Z,23.07
2019-02-25T06:47:13.870Z,29.50
2019-02-25T06:52:20.114Z,26.70
2019-02-25T06:57:25.847Z,35.43
2019-02-25T07:02:31.627Z,29.30
2019-02-25T07:07:42.247Z,27.97
2019-02-25T07:12:51.762Z,31.67
2019-02-25T07:18:08.748Z,34.80
2019-02-25T07:23:19.323Z,31.47
2019-02-25T07:28:30.776Z,33.97
2019-02-25T07:33:40.419Z,45.80
2019-02-25T07:38:52.354Z,45.67
2019-02-25T07:44:03.014Z,33.13
2019-02-25T07:49:21.775Z,35.47
2019-02-25T07:54:34.172Z,38.50
2019-02-25T07:59:45.729Z,36.03
2019-02-25T08:04:55.329Z,38.23
2019-02-25T08:10:40.327Z,34.40
2019-02-25T08:15:56.056Z,31.90
2019-02-25T08:21:10.558Z,32.03
2019-02-25T08:27:19.887Z,33.23
2019-02-25T08:32:35.156Z,31.40
2019-02-25T08:38:20.989Z,42.27
2019-02-25T08:43:31.185Z,32.70
2019-02-25T08:48:41.958Z,46.97
2019-02-25T08:53:48.134Z,35.40
2019-02-25T08:58:53.603Z,49.07
2019-02-25T09:03:59.107Z,35.87
2019-02-25T09:09:05.546Z,37.50
2019-02-25T09:14:11.042Z,42.47
2019-02-25T09:19:16.547Z,43.13
2019-02-25T09:24:22.006Z,40.80
2019-02-25T09:29:27.795Z,44.10
2019-02-25T09:34:33.267Z,52.30
2019-02-25T09:39:38.716Z,59.57
2019-02-25T09:44:44.583Z,58.50
2019-02-25T09:49:51.051Z,57.53
2019-02-25T09:54:56.035Z,58.33
2019-02-25T10:00:01.546Z,58.87
2019-02-25T10:05:07.667Z,54.70
2019-02-25T10:10:14.276Z,57.27
2019-02-25T10:15:20.519Z,65.57
2019-02-25T10:20:26.309Z,62.53
2019-02-25T10:25:31.816Z,61.53
2019-02-25T10:30:37.591Z,60.03
2019-02-25T10:35:43.132Z,55.30
2019-02-25T10:40:49.604Z,47.10
2019-02-25T10:45:54.264Z,50.70
2019-02-25T10:50:59.896Z,56.50
2019-02-25T10:56:23.609Z,56.53
2019-02-25T11:01:27.290Z,53.57
2019-02-25T11:06:35.625Z,42.23
2019-02-25T11:11:39.718Z,43.47
2019-02-25T11:16:46.028Z,44.33
2019-02-25T11:21:50.838Z,40.43
2019-02-25T11:26:56.948Z,39.30
2019-02-25T11:32:03.084Z,39.03
2019-02-25T11:37:09.010Z,42.03
2019-02-25T11:42:18.729Z,35.13
2019-02-25T11:47:21.211Z,33.23
2019-02-25T11:52:26.690Z,29.93
2019-02-25T11:57:32.167Z,29.50
2019-02-25T12:02:37.619Z,30.83
2019-02-25T12:07:43.446Z,28.93
2019-02-25T12:12:48.900Z,28.43
2019-02-25T12:17:59.663Z,30.43
2019-02-25T12:23:07.211Z,21.13
2019-02-25T12:28:13.966Z,25.33
2019-02-25T12:33:19.463Z,25.73
2019-02-25T12:38:27.780Z,22.27
2019-02-25T12:43:36.118Z,23.90
2019-02-25T12:48:43.301Z,27.50
2019-02-25T12:53:50.113Z,27.50
2019-02-25T12:58:55.723Z,26.93
2019-02-25T13:04:04.279Z,24.03
2019-02-25T13:09:16.739Z,28.93
2019-02-25T13:14:22.386Z,35.30
2019-02-25T13:19:28.455Z,31.47
2019-02-25T13:24:35.188Z,28.13
2019-02-25T13:35:00.266Z,18.77
2019-02-25T13:40:06.267Z,20.07
2019-02-25T13:45:12.871Z,21.17
2019-02-25T13:50:18.403Z,22.90
2019-02-25T13:55:24.035Z,23.00
2019-02-25T14:00:29.920Z,29.00
2019-02-25T14:05:36.263Z,29.47
2019-02-25T14:10:41.800Z,23.37
2019-02-25T14:15:47.407Z,22.00
2019-02-25T14:20:53.960Z,25.00
2019-02-25T14:25:59.991Z,24.43
2019-02-25T14:31:05.630Z,25.43
2019-02-25T14:36:11.422Z,26.10
2019-02-25T14:41:18.523Z,21.83
2019-02-25T14:46:24.965Z,25.73
2019-02-25T14:51:31.704Z,31.07
2019-02-25T14:56:37.424Z,26.63
2019-02-25T15:01:43.163Z,29.30
2019-02-25T15:06:48.725Z,23.07
2019-02-25T15:11:55.932Z,28.83
2019-02-25T15:17:00.384Z,28.50
2019-02-25T15:22:06.051Z,27.17
2019-02-25T15:27:12.960Z,28.97
2019-02-25T15:32:17.358Z,31.70
2019-02-25T15:37:22.919Z,34.10
2019-02-25T15:42:30.093Z,33.50
2019-02-25T15:47:34.301Z,41.70
2019-02-25T15:52:40.327Z,43.67
2019-02-25T15:57:46.278Z,50.00
2019-02-25T16:02:52.845Z,39.90
2019-02-25T16:08:00.615Z,35.90
2019-02-25T16:13:09.286Z,46.07
2019-02-25T16:18:13.776Z,38.67
2019-02-25T16:23:16.499Z,44.70
2019-02-25T16:28:22.534Z,40.10
2019-02-25T16:33:28.252Z,41.30
2019-02-25T16:38:34.635Z,42.10
2019-02-25T16:43:39.311Z,40.17
2019-02-25T16:48:46.403Z,37.20
2019-02-25T16:53:52.285Z,41.77
2019-02-25T16:58:56.743Z,53.37
2019-02-25T17:04:01.984Z,45.73
2019-02-25T17:09:09.699Z,45.03
2019-02-25T17:14:14.972Z,40.83
2019-02-25T17:19:19.661Z,51.53
2019-02-25T17:24:26.496Z,47.33
2019-02-25T17:29:31.956Z,50.03
2019-02-25T17:34:37.573Z,50.87
2019-02-25T17:39:43.254Z,47.97
2019-02-25T17:44:49.041Z,41.40
2019-02-25T17:49:56.074Z,41.90
2019-02-25T17:55:01.515Z,41.93
2019-02-25T18:00:13.219Z,46.90
2019-02-25T18:05:19.122Z,50.97
2019-02-25T18:10:25.150Z,69.97
2019-02-25T18:15:31.101Z,57.47
2019-02-25T18:20:36.603Z,50.43
2019-02-25T18:25:41.878Z,47.83
2019-02-25T18:30:47.787Z,46.90
2019-02-25T18:35:53.370Z,50.47
2019-02-25T18:41:00.381Z,45.97
2019-02-25T18:46:07.025Z,54.47
2019-02-25T18:51:10.650Z,44.60
2019-02-25T18:56:16.740Z,51.83
2019-02-25T19:01:22.388Z,46.97
2019-02-25T19:06:29.313Z,49.87
2019-02-25T19:11:33.449Z,44.13
2019-02-25T19:16:40.047Z,48.20
2019-02-25T19:21:45.746Z,49.50
2019-02-25T19:26:51.122Z,50.23
2019-02-25T19:32:00.640Z,48.73
2019-02-25T19:37:04.512Z,50.07
2019-02-25T19:42:08.749Z,53.57
2019-02-25T19:47:16.247Z,47.13
2019-02-25T19:52:20.067Z,47.00
2019-02-25T19:57:27.937Z,44.03
2019-02-25T20:02:32.898Z,47.83
2019-02-25T20:07:37.547Z,54.13
2019-02-25T20:12:43.127Z,54.73
2019-02-25T20:17:50.424Z,54.13
2019-02-25T20:22:54.242Z,59.53
2019-02-25T20:28:02.044Z,52.47
2019-02-25T20:33:06.981Z,51.47
2019-02-25T20:38:12.283Z,50.53
2019-02-25T20:43:21.831Z,61.73
2019-02-25T20:48:27.516Z,56.13
2019-02-25T20:53:33.835Z,48.87
2019-02-25T20:58:38.313Z,54.13
2019-02-25T21:03:45.770Z,59.03
2019-02-25T21:08:49.024Z,53.67
2019-02-25T21:13:54.585Z,45.37
2019-02-25T21:19:00.451Z,53.00
2019-02-25T21:24:08.684Z,44.80
2019-02-25T21:29:11.897Z,52.97
2019-02-25T21:34:19.772Z,48.83
2019-02-25T21:39:22.961Z,52.43
2019-02-25T21:44:28.944Z,46.63
2019-02-25T21:49:35.978Z,51.73
2019-02-25T21:54:39.909Z,47.43
2019-02-25T21:59:45.568Z,51.00
2019-02-25T22:04:51.840Z,52.53
2019-02-25T22:09:56.776Z,49.10
2019-02-25T22:15:02.352Z,54.40
2019-02-25T22:20:12.072Z,47.00
2019-02-25T22:25:16.175Z,49.33
2019-02-25T22:30:21.439Z,48.40
2019-02-25T22:35:27.275Z,50.03
2019-02-25T22:40:34.467Z,47.60
2019-02-25T22:45:39.712Z,46.60
2019-02-25T22:50:44.174Z,45.03
2019-02-25T22:55:50.384Z,45.77
2019-02-25T23:00:58.292Z,46.43
2019-02-25T23:06:01.883Z,48.73
2019-02-25T23:11:09.996Z,42.67
2019-02-25T23:16:13.761Z,46.80
2019-02-25T23:21:23.757Z,45.33
2019-02-25T23:26:24.252Z,39.60
2019-02-25T23:31:30.742Z,45.33
2019-02-25T23:36:40.700Z,41.47
2019-02-25T23:41:43.830Z,45.33
2019-02-25T23:46:47.353Z,43.80
2019-02-25T23:51:52.871Z,38.23
2019-02-25T23:57:00.155Z,34.43
